sensor_id;sensor_type;location;lat;lon;timestamp;temperature;humidity
15178;DHT22;7689;53.612;-2.416;2022-08-19T00:01:16;16.30;99.90
15178;DHT22;7689;53.612;-2.416;2022-08-19T00:03:42;16.20;99.90
15178;DHT22;7689;53.612;-2.416;2022-08-19T00:06:08;16.20;99.90
15178;DHT22;7689;53.612;-2.416;2022-08-19T00:08:34;16.20;99.90
15178;DHT22;7689;53.612;-2.416;2022-08-19T00:11:00;16.20;99.90
15178;DHT22;7689;53.612;-2.416;2022-08-19T00:13:25;16.20;99.90
15178;DHT22;7689;53.612;-2.416;2022-08-19T00:15:52;16.10;99.90
15178;DHT22;7689;53.612;-2.416;2022-08-19T00:18:17;16.10;99.90
15178;DHT22;7689;53.612;-2.416;2022-08-19T00:20:43;16.10;99.90
15178;DHT22;7689;53.612;-2.416;2022-08-19T00:23:09;16.00;99.90
15178;DHT22;7689;53.612;-2.416;2022-08-19T00:25:35;16.10;99.90
15178;DHT22;7689;53.612;-2.416;2022-08-19T00:28:02;16.10;99.90
15178;DHT22;7689;53.612;-2.416;2022-08-19T00:30:28;16.20;99.90
15178;DHT22;7689;53.612;-2.416;2022-08-19T00:32:54;16.20;99.90
15178;DHT22;7689;53.612;-2.416;2022-08-19T00:35:22;16.20;99.90
15178;DHT22;7689;53.612;-2.416;2022-08-19T00:37:49;16.20;99.90
15178;DHT22;7689;53.612;-2.416;2022-08-19T00:40:16;16.20;99.90
15178;DHT22;7689;53.612;-2.416;2022-08-19T00:42:42;16.20;99.90
15178;DHT22;7689;53.612;-2.416;2022-08-19T00:45:15;16.10;99.90
15178;DHT22;7689;53.612;-2.416;2022-08-19T00:47:43;16.10;99.90
15178;DHT22;7689;53.612;-2.416;2022-08-19T00:50:10;16.10;99.90
15178;DHT22;7689;53.612;-2.416;2022-08-19T00:52:41;16.10;99.90
15178;DHT22;7689;53.612;-2.416;2022-08-19T00:55:14;16.10;99.90
15178;DHT22;7689;53.612;-2.416;2022-08-19T00:57:45;16.10;99.90
15178;DHT22;7689;53.612;-2.416;2022-08-19T01:00:16;16.00;99.90
15178;DHT22;7689;53.612;-2.416;2022-08-19T01:02:43;16.00;99.90
15178;DHT22;7689;53.612;-2.416;2022-08-19T01:05:17;15.90;99.90
15178;DHT22;7689;53.612;-2.416;2022-08-19T01:07:44;15.90;99.90
15178;DHT22;7689;53.612;-2.416;2022-08-19T01:10:16;15.80;99.90
15178;DHT22;7689;53.612;-2.416;2022-08-19T01:12:44;15.80;99.90
15178;DHT22;7689;53.612;-2.416;2022-08-19T01:15:12;15.70;99.90
15178;DHT22;7689;53.612;-2.416;2022-08-19T01:17:40;15.70;99.90
15178;DHT22;7689;53.612;-2.416;2022-08-19T01:20:12;15.60;99.90
15178;DHT22;7689;53.612;-2.416;2022-08-19T01:22:50;15.70;99.90
15178;DHT22;7689;53.612;-2.416;2022-08-19T01:25:19;15.60;99.90
15178;DHT22;7689;53.612;-2.416;2022-08-19T01:27:48;15.60;99.90
15178;DHT22;7689;53.612;-2.416;2022-08-19T01:30:22;15.60;99.90
15178;DHT22;7689;53.612;-2.416;2022-08-19T01:32:49;15.60;99.90
15178;DHT22;7689;53.612;-2.416;2022-08-19T01:35:15;15.60;99.90
15178;DHT22;7689;53.612;-2.416;2022-08-19T01:37:52;15.60;99.90
15178;DHT22;7689;53.612;-2.416;2022-08-19T01:40:20;15.50;99.90
15178;DHT22;7689;53.612;-2.416;2022-08-19T01:42:50;15.50;99.90
15178;DHT22;7689;53.612;-2.416;2022-08-19T01:45:18;15.50;99.90
15178;DHT22;7689;53.612;-2.416;2022-08-19T01:47:44;15.40;99.90
15178;DHT22;7689;53.612;-2.416;2022-08-19T01:50:11;15.40;99.90
15178;DHT22;7689;53.612;-2.416;2022-08-19T01:52:38;15.30;99.90
15178;DHT22;7689;53.612;-2.416;2022-08-19T01:55:06;15.30;99.90
15178;DHT22;7689;53.612;-2.416;2022-08-19T01:57:32;15.30;99.90
15178;DHT22;7689;53.612;-2.416;2022-08-19T01:59:58;15.20;99.90
15178;DHT22;7689;53.612;-2.416;2022-08-19T02:02:25;15.20;99.90
15178;DHT22;7689;53.612;-2.416;2022-08-19T02:04:50;15.20;99.90
15178;DHT22;7689;53.612;-2.416;2022-08-19T02:07:19;15.10;99.90
15178;DHT22;7689;53.612;-2.416;2022-08-19T02:09:47;15.00;99.90
15178;DHT22;7689;53.612;-2.416;2022-08-19T02:12:14;15.00;99.90
15178;DHT22;7689;53.612;-2.416;2022-08-19T02:14:40;15.00;99.90
15178;DHT22;7689;53.612;-2.416;2022-08-19T02:17:06;14.90;99.90
15178;DHT22;7689;53.612;-2.416;2022-08-19T02:19:32;14.90;99.90
15178;DHT22;7689;53.612;-2.416;2022-08-19T02:21:58;14.80;99.90
15178;DHT22;7689;53.612;-2.416;2022-08-19T02:24:25;14.80;99.90
15178;DHT22;7689;53.612;-2.416;2022-08-19T02:26:51;14.70;99.90
15178;DHT22;7689;53.612;-2.416;2022-08-19T02:29:16;14.70;99.90
15178;DHT22;7689;53.612;-2.416;2022-08-19T02:31:42;14.70;99.90
15178;DHT22;7689;53.612;-2.416;2022-08-19T02:34:08;14.70;99.90
15178;DHT22;7689;53.612;-2.416;2022-08-19T02:36:34;14.70;99.90
15178;DHT22;7689;53.612;-2.416;2022-08-19T02:39:00;14.70;99.90
15178;DHT22;7689;53.612;-2.416;2022-08-19T02:41:28;14.60;99.90
15178;DHT22;7689;53.612;-2.416;2022-08-19T02:43:56;14.50;99.90
15178;DHT22;7689;53.612;-2.416;2022-08-19T02:46:29;14.40;99.90
15178;DHT22;7689;53.612;-2.416;2022-08-19T02:49:04;14.30;99.90
15178;DHT22;7689;53.612;-2.416;2022-08-19T02:51:38;14.20;99.90
15178;DHT22;7689;53.612;-2.416;2022-08-19T02:54:05;14.20;99.90
15178;DHT22;7689;53.612;-2.416;2022-08-19T02:56:34;14.10;99.90
15178;DHT22;7689;53.612;-2.416;2022-08-19T02:59:01;14.10;99.90
15178;DHT22;7689;53.612;-2.416;2022-08-19T03:01:30;14.10;99.90
15178;DHT22;7689;53.612;-2.416;2022-08-19T03:03:58;14.10;99.90
15178;DHT22;7689;53.612;-2.416;2022-08-19T03:06:25;14.10;99.90
15178;DHT22;7689;53.612;-2.416;2022-08-19T03:08:52;13.90;99.90
15178;DHT22;7689;53.612;-2.416;2022-08-19T03:11:20;13.80;99.90
15178;DHT22;7689;53.612;-2.416;2022-08-19T03:13:46;13.80;99.90
15178;DHT22;7689;53.612;-2.416;2022-08-19T03:16:14;13.90;99.90
15178;DHT22;7689;53.612;-2.416;2022-08-19T03:18:40;13.90;99.90
15178;DHT22;7689;53.612;-2.416;2022-08-19T03:21:06;13.80;99.90
15178;DHT22;7689;53.612;-2.416;2022-08-19T03:23:32;13.90;99.90
15178;DHT22;7689;53.612;-2.416;2022-08-19T03:25:58;13.90;99.90
15178;DHT22;7689;53.612;-2.416;2022-08-19T03:28:23;13.80;99.90
15178;DHT22;7689;53.612;-2.416;2022-08-19T03:31:16;13.80;99.90
15178;DHT22;7689;53.612;-2.416;2022-08-19T03:33:43;13.70;99.90
15178;DHT22;7689;53.612;-2.416;2022-08-19T03:36:15;13.70;99.90
15178;DHT22;7689;53.612;-2.416;2022-08-19T03:38:44;13.70;99.90
15178;DHT22;7689;53.612;-2.416;2022-08-19T03:41:14;13.70;99.90
15178;DHT22;7689;53.612;-2.416;2022-08-19T03:43:41;13.70;99.90
15178;DHT22;7689;53.612;-2.416;2022-08-19T03:46:11;13.60;99.90
15178;DHT22;7689;53.612;-2.416;2022-08-19T03:48:38;13.50;99.90
15178;DHT22;7689;53.612;-2.416;2022-08-19T03:51:05;13.50;99.90
15178;DHT22;7689;53.612;-2.416;2022-08-19T03:53:33;13.60;99.90
15178;DHT22;7689;53.612;-2.416;2022-08-19T03:55:59;13.60;99.90
15178;DHT22;7689;53.612;-2.416;2022-08-19T03:58:27;13.50;99.90
15178;DHT22;7689;53.612;-2.416;2022-08-19T04:00:57;13.50;99.90
15178;DHT22;7689;53.612;-2.416;2022-08-19T04:03:24;13.50;99.90
15178;DHT22;7689;53.612;-2.416;2022-08-19T04:05:50;13.50;99.90
15178;DHT22;7689;53.612;-2.416;2022-08-19T04:08:16;13.40;99.90
15178;DHT22;7689;53.612;-2.416;2022-08-19T04:10:46;13.40;99.90
15178;DHT22;7689;53.612;-2.416;2022-08-19T04:13:13;13.50;99.90
15178;DHT22;7689;53.612;-2.416;2022-08-19T04:15:41;13.50;99.90
15178;DHT22;7689;53.612;-2.416;2022-08-19T04:18:08;13.60;99.90
15178;DHT22;7689;53.612;-2.416;2022-08-19T04:20:45;13.40;99.90
15178;DHT22;7689;53.612;-2.416;2022-08-19T04:23:13;13.40;99.90
15178;DHT22;7689;53.612;-2.416;2022-08-19T04:25:41;13.40;99.90
15178;DHT22;7689;53.612;-2.416;2022-08-19T04:28:07;13.40;99.90
15178;DHT22;7689;53.612;-2.416;2022-08-19T04:30:43;13.40;99.90
15178;DHT22;7689;53.612;-2.416;2022-08-19T04:33:10;13.40;99.90
15178;DHT22;7689;53.612;-2.416;2022-08-19T04:35:41;13.40;99.90
15178;DHT22;7689;53.612;-2.416;2022-08-19T04:38:09;13.30;99.90
15178;DHT22;7689;53.612;-2.416;2022-08-19T04:40:43;13.20;99.90
15178;DHT22;7689;53.612;-2.416;2022-08-19T04:43:27;13.20;99.90
15178;DHT22;7689;53.612;-2.416;2022-08-19T04:45:53;13.00;99.90
15178;DHT22;7689;53.612;-2.416;2022-08-19T04:48:20;13.20;99.90
15178;DHT22;7689;53.612;-2.416;2022-08-19T04:50:52;13.10;99.90
15178;DHT22;7689;53.612;-2.416;2022-08-19T04:53:26;13.20;99.90
15178;DHT22;7689;53.612;-2.416;2022-08-19T04:55:54;13.30;99.90
15178;DHT22;7689;53.612;-2.416;2022-08-19T04:58:20;14.50;99.90
15178;DHT22;7689;53.612;-2.416;2022-08-19T05:00:46;13.20;99.90
15178;DHT22;7689;53.612;-2.416;2022-08-19T05:03:11;13.10;99.90
15178;DHT22;7689;53.612;-2.416;2022-08-19T05:05:40;13.10;99.90
15178;DHT22;7689;53.612;-2.416;2022-08-19T05:08:06;13.00;99.90
15178;DHT22;7689;53.612;-2.416;2022-08-19T05:10:35;13.00;99.90
15178;DHT22;7689;53.612;-2.416;2022-08-19T05:13:01;13.20;99.90
15178;DHT22;7689;53.612;-2.416;2022-08-19T05:15:26;13.30;99.90
15178;DHT22;7689;53.612;-2.416;2022-08-19T05:17:52;13.30;99.90
15178;DHT22;7689;53.612;-2.416;2022-08-19T05:20:38;13.30;99.90
15178;DHT22;7689;53.612;-2.416;2022-08-19T05:23:22;13.30;99.90
15178;DHT22;7689;53.612;-2.416;2022-08-19T05:25:49;13.30;99.90
15178;DHT22;7689;53.612;-2.416;2022-08-19T05:28:15;13.60;99.90
15178;DHT22;7689;53.612;-2.416;2022-08-19T05:30:41;13.60;99.90
15178;DHT22;7689;53.612;-2.416;2022-08-19T05:33:08;13.70;99.90
15178;DHT22;7689;53.612;-2.416;2022-08-19T05:35:37;13.70;99.90
15178;DHT22;7689;53.612;-2.416;2022-08-19T05:38:03;13.70;99.90
15178;DHT22;7689;53.612;-2.416;2022-08-19T05:40:29;13.50;99.90
15178;DHT22;7689;53.612;-2.416;2022-08-19T05:42:55;13.30;99.90
15178;DHT22;7689;53.612;-2.416;2022-08-19T05:45:21;13.30;99.90
15178;DHT22;7689;53.612;-2.416;2022-08-19T05:47:47;13.30;99.90
15178;DHT22;7689;53.612;-2.416;2022-08-19T05:50:13;13.20;99.90
15178;DHT22;7689;53.612;-2.416;2022-08-19T05:52:39;13.30;99.90
15178;DHT22;7689;53.612;-2.416;2022-08-19T05:55:05;13.50;99.90
15178;DHT22;7689;53.612;-2.416;2022-08-19T05:57:31;13.60;99.90
15178;DHT22;7689;53.612;-2.416;2022-08-19T05:59:57;13.70;99.90
15178;DHT22;7689;53.612;-2.416;2022-08-19T06:02:29;13.80;99.90
15178;DHT22;7689;53.612;-2.416;2022-08-19T06:04:56;13.90;99.90
15178;DHT22;7689;53.612;-2.416;2022-08-19T06:07:21;14.00;99.90
15178;DHT22;7689;53.612;-2.416;2022-08-19T06:09:47;14.00;99.90
15178;DHT22;7689;53.612;-2.416;2022-08-19T06:12:13;14.20;99.90
15178;DHT22;7689;53.612;-2.416;2022-08-19T06:14:38;14.20;99.90
15178;DHT22;7689;53.612;-2.416;2022-08-19T06:17:06;14.60;99.90
15178;DHT22;7689;53.612;-2.416;2022-08-19T06:19:32;15.30;99.90
15178;DHT22;7689;53.612;-2.416;2022-08-19T06:21:59;16.00;99.90
15178;DHT22;7689;53.612;-2.416;2022-08-19T06:24:26;16.30;99.90
15178;DHT22;7689;53.612;-2.416;2022-08-19T06:26:54;16.30;99.90
15178;DHT22;7689;53.612;-2.416;2022-08-19T06:29:23;16.30;99.90
15178;DHT22;7689;53.612;-2.416;2022-08-19T06:31:52;16.40;99.90
15178;DHT22;7689;53.612;-2.416;2022-08-19T06:34:18;16.60;99.90
15178;DHT22;7689;53.612;-2.416;2022-08-19T06:36:47;16.80;99.90
15178;DHT22;7689;53.612;-2.416;2022-08-19T06:39:16;16.60;99.90
15178;DHT22;7689;53.612;-2.416;2022-08-19T06:41:47;16.50;99.90
15178;DHT22;7689;53.612;-2.416;2022-08-19T06:44:14;17.10;99.90
15178;DHT22;7689;53.612;-2.416;2022-08-19T06:46:41;18.20;99.90
15178;DHT22;7689;53.612;-2.416;2022-08-19T06:49:07;19.00;99.90
15178;DHT22;7689;53.612;-2.416;2022-08-19T06:51:36;19.40;99.90
15178;DHT22;7689;53.612;-2.416;2022-08-19T06:54:02;19.60;99.90
15178;DHT22;7689;53.612;-2.416;2022-08-19T06:56:30;19.50;99.90
15178;DHT22;7689;53.612;-2.416;2022-08-19T06:59:04;19.80;99.90
15178;DHT22;7689;53.612;-2.416;2022-08-19T07:01:37;20.10;99.90
15178;DHT22;7689;53.612;-2.416;2022-08-19T07:04:05;20.60;99.90
15178;DHT22;7689;53.612;-2.416;2022-08-19T07:06:30;20.90;99.90
15178;DHT22;7689;53.612;-2.416;2022-08-19T07:08:57;20.90;99.90
15178;DHT22;7689;53.612;-2.416;2022-08-19T07:11:23;20.80;99.90
15178;DHT22;7689;53.612;-2.416;2022-08-19T07:13:49;20.80;99.90
15178;DHT22;7689;53.612;-2.416;2022-08-19T07:16:18;21.00;99.90
15178;DHT22;7689;53.612;-2.416;2022-08-19T07:18:48;21.60;99.90
15178;DHT22;7689;53.612;-2.416;2022-08-19T07:21:17;21.50;99.90
15178;DHT22;7689;53.612;-2.416;2022-08-19T07:23:44;21.60;99.90
15178;DHT22;7689;53.612;-2.416;2022-08-19T07:26:14;21.30;99.90
15178;DHT22;7689;53.612;-2.416;2022-08-19T07:28:40;21.90;99.90
15178;DHT22;7689;53.612;-2.416;2022-08-19T07:31:14;21.80;99.90
15178;DHT22;7689;53.612;-2.416;2022-08-19T07:33:41;22.00;99.90
15178;DHT22;7689;53.612;-2.416;2022-08-19T07:36:09;21.90;99.90
15178;DHT22;7689;53.612;-2.416;2022-08-19T07:38:37;21.50;99.90
15178;DHT22;7689;53.612;-2.416;2022-08-19T07:41:05;21.90;99.90
15178;DHT22;7689;53.612;-2.416;2022-08-19T07:43:30;21.80;99.90
15178;DHT22;7689;53.612;-2.416;2022-08-19T07:45:57;21.50;99.90
15178;DHT22;7689;53.612;-2.416;2022-08-19T07:48:24;20.80;99.90
15178;DHT22;7689;53.612;-2.416;2022-08-19T07:50:59;21.30;99.90
15178;DHT22;7689;53.612;-2.416;2022-08-19T07:53:28;21.80;99.90
15178;DHT22;7689;53.612;-2.416;2022-08-19T07:55:54;21.00;99.90
15178;DHT22;7689;53.612;-2.416;2022-08-19T07:58:21;20.00;99.90
15178;DHT22;7689;53.612;-2.416;2022-08-19T08:00:49;19.10;99.90
15178;DHT22;7689;53.612;-2.416;2022-08-19T08:03:17;18.80;99.90
15178;DHT22;7689;53.612;-2.416;2022-08-19T08:05:43;18.20;99.90
15178;DHT22;7689;53.612;-2.416;2022-08-19T08:08:28;17.90;99.90
15178;DHT22;7689;53.612;-2.416;2022-08-19T08:10:57;17.80;99.90
15178;DHT22;7689;53.612;-2.416;2022-08-19T08:13:24;17.50;99.90
15178;DHT22;7689;53.612;-2.416;2022-08-19T08:15:49;17.40;99.90
15178;DHT22;7689;53.612;-2.416;2022-08-19T08:18:15;17.30;99.90
15178;DHT22;7689;53.612;-2.416;2022-08-19T08:20:41;17.60;99.90
15178;DHT22;7689;53.612;-2.416;2022-08-19T08:23:07;18.00;99.90
15178;DHT22;7689;53.612;-2.416;2022-08-19T08:25:47;18.30;99.90
15178;DHT22;7689;53.612;-2.416;2022-08-19T08:28:15;18.00;99.90
15178;DHT22;7689;53.612;-2.416;2022-08-19T08:30:41;17.90;99.90
15178;DHT22;7689;53.612;-2.416;2022-08-19T08:33:09;18.10;99.90
15178;DHT22;7689;53.612;-2.416;2022-08-19T08:35:35;18.60;99.90
15178;DHT22;7689;53.612;-2.416;2022-08-19T08:38:01;19.00;99.90
15178;DHT22;7689;53.612;-2.416;2022-08-19T08:45:47;20.00;99.90
15178;DHT22;7689;53.612;-2.416;2022-08-19T08:51:32;20.30;99.90
15178;DHT22;7689;53.612;-2.416;2022-08-19T08:53:59;20.40;99.90
15178;DHT22;7689;53.612;-2.416;2022-08-19T08:56:25;20.10;99.90
15178;DHT22;7689;53.612;-2.416;2022-08-19T08:59:04;20.10;99.90
15178;DHT22;7689;53.612;-2.416;2022-08-19T09:01:33;20.00;99.90
15178;DHT22;7689;53.612;-2.416;2022-08-19T09:03:59;19.50;99.90
15178;DHT22;7689;53.612;-2.416;2022-08-19T09:09:28;18.70;99.90
15178;DHT22;7689;53.612;-2.416;2022-08-19T09:12:15;18.50;99.90
15178;DHT22;7689;53.612;-2.416;2022-08-19T09:14:53;18.50;99.90
15178;DHT22;7689;53.612;-2.416;2022-08-19T09:17:24;18.40;99.90
15178;DHT22;7689;53.612;-2.416;2022-08-19T09:19:59;18.20;99.90
15178;DHT22;7689;53.612;-2.416;2022-08-19T09:22:32;18.20;99.90
15178;DHT22;7689;53.612;-2.416;2022-08-19T09:24:57;18.40;99.90
15178;DHT22;7689;53.612;-2.416;2022-08-19T09:27:24;18.60;99.90
15178;DHT22;7689;53.612;-2.416;2022-08-19T09:29:51;18.80;99.90
15178;DHT22;7689;53.612;-2.416;2022-08-19T09:32:17;19.10;99.90
15178;DHT22;7689;53.612;-2.416;2022-08-19T09:34:43;19.50;99.90
15178;DHT22;7689;53.612;-2.416;2022-08-19T09:37:09;19.80;99.90
15178;DHT22;7689;53.612;-2.416;2022-08-19T09:39:35;19.80;99.90
15178;DHT22;7689;53.612;-2.416;2022-08-19T09:42:01;20.20;99.90
15178;DHT22;7689;53.612;-2.416;2022-08-19T09:44:28;20.40;99.90
15178;DHT22;7689;53.612;-2.416;2022-08-19T09:46:54;20.60;99.90
15178;DHT22;7689;53.612;-2.416;2022-08-19T09:49:21;20.10;99.90
15178;DHT22;7689;53.612;-2.416;2022-08-19T09:51:51;19.80;99.90
15178;DHT22;7689;53.612;-2.416;2022-08-19T09:54:18;19.40;99.90
15178;DHT22;7689;53.612;-2.416;2022-08-19T09:56:43;19.20;99.90
15178;DHT22;7689;53.612;-2.416;2022-08-19T09:59:09;19.20;99.90
15178;DHT22;7689;53.612;-2.416;2022-08-19T10:01:37;19.10;99.90
15178;DHT22;7689;53.612;-2.416;2022-08-19T10:04:03;19.10;99.90
15178;DHT22;7689;53.612;-2.416;2022-08-19T10:06:34;19.00;99.90
15178;DHT22;7689;53.612;-2.416;2022-08-19T10:09:00;18.90;99.90
15178;DHT22;7689;53.612;-2.416;2022-08-19T10:11:28;18.90;99.90
15178;DHT22;7689;53.612;-2.416;2022-08-19T10:13:54;18.90;99.90
15178;DHT22;7689;53.612;-2.416;2022-08-19T10:16:21;19.00;99.90
15178;DHT22;7689;53.612;-2.416;2022-08-19T10:18:48;19.40;99.90
15178;DHT22;7689;53.612;-2.416;2022-08-19T10:21:18;19.70;99.90
15178;DHT22;7689;53.612;-2.416;2022-08-19T10:23:45;20.20;99.90
15178;DHT22;7689;53.612;-2.416;2022-08-19T10:26:15;20.60;99.90
15178;DHT22;7689;53.612;-2.416;2022-08-19T10:28:41;20.30;99.90
15178;DHT22;7689;53.612;-2.416;2022-08-19T10:31:13;20.10;99.90
15178;DHT22;7689;53.612;-2.416;2022-08-19T10:33:40;20.00;99.90
15178;DHT22;7689;53.612;-2.416;2022-08-19T10:36:21;20.00;99.90
15178;DHT22;7689;53.612;-2.416;2022-08-19T10:38:50;19.80;99.90
15178;DHT22;7689;53.612;-2.416;2022-08-19T10:41:17;19.70;99.90
15178;DHT22;7689;53.612;-2.416;2022-08-19T10:43:43;19.60;99.90
15178;DHT22;7689;53.612;-2.416;2022-08-19T10:46:13;19.50;99.90
15178;DHT22;7689;53.612;-2.416;2022-08-19T10:48:40;19.60;99.90
15178;DHT22;7689;53.612;-2.416;2022-08-19T10:51:07;19.70;99.90
15178;DHT22;7689;53.612;-2.416;2022-08-19T10:53:51;20.00;99.90
15178;DHT22;7689;53.612;-2.416;2022-08-19T10:56:18;19.30;99.90
15178;DHT22;7689;53.612;-2.416;2022-08-19T10:59:03;19.10;99.90
15178;DHT22;7689;53.612;-2.416;2022-08-19T11:01:30;19.20;99.90
15178;DHT22;7689;53.612;-2.416;2022-08-19T11:03:57;19.30;99.90
15178;DHT22;7689;53.612;-2.416;2022-08-19T11:06:23;19.70;99.90
15178;DHT22;7689;53.612;-2.416;2022-08-19T11:08:51;20.00;99.90
15178;DHT22;7689;53.612;-2.416;2022-08-19T11:11:17;20.10;99.90
15178;DHT22;7689;53.612;-2.416;2022-08-19T11:13:43;19.80;99.90
15178;DHT22;7689;53.612;-2.416;2022-08-19T11:16:17;19.70;99.90
15178;DHT22;7689;53.612;-2.416;2022-08-19T11:18:47;20.00;99.90
15178;DHT22;7689;53.612;-2.416;2022-08-19T11:21:31;19.90;99.90
15178;DHT22;7689;53.612;-2.416;2022-08-19T11:24:00;19.80;99.90
15178;DHT22;7689;53.612;-2.416;2022-08-19T11:26:26;19.90;99.90
15178;DHT22;7689;53.612;-2.416;2022-08-19T11:28:53;19.90;99.90
15178;DHT22;7689;53.612;-2.416;2022-08-19T11:31:22;20.00;99.90
15178;DHT22;7689;53.612;-2.416;2022-08-19T11:33:48;20.40;99.90
15178;DHT22;7689;53.612;-2.416;2022-08-19T11:36:18;20.00;99.90
15178;DHT22;7689;53.612;-2.416;2022-08-19T11:38:46;20.10;99.90
15178;DHT22;7689;53.612;-2.416;2022-08-19T11:41:14;19.80;99.90
15178;DHT22;7689;53.612;-2.416;2022-08-19T11:43:41;19.90;99.90
15178;DHT22;7689;53.612;-2.416;2022-08-19T11:46:08;20.00;99.90
15178;DHT22;7689;53.612;-2.416;2022-08-19T11:48:36;20.30;99.90
15178;DHT22;7689;53.612;-2.416;2022-08-19T11:51:14;20.50;99.90
15178;DHT22;7689;53.612;-2.416;2022-08-19T11:53:40;20.60;99.90
15178;DHT22;7689;53.612;-2.416;2022-08-19T11:56:08;20.90;99.90
15178;DHT22;7689;53.612;-2.416;2022-08-19T11:58:34;20.80;99.90
15178;DHT22;7689;53.612;-2.416;2022-08-19T12:01:01;20.90;99.90
15178;DHT22;7689;53.612;-2.416;2022-08-19T12:03:30;20.90;99.90
15178;DHT22;7689;53.612;-2.416;2022-08-19T12:05:56;20.70;99.90
15178;DHT22;7689;53.612;-2.416;2022-08-19T12:08:22;20.50;99.90
15178;DHT22;7689;53.612;-2.416;2022-08-19T12:10:48;20.60;99.90
15178;DHT22;7689;53.612;-2.416;2022-08-19T12:13:14;20.90;99.90
15178;DHT22;7689;53.612;-2.416;2022-08-19T12:15:45;20.70;99.90
15178;DHT22;7689;53.612;-2.416;2022-08-19T12:18:11;20.80;99.90
15178;DHT22;7689;53.612;-2.416;2022-08-19T12:20:40;20.80;99.90
15178;DHT22;7689;53.612;-2.416;2022-08-19T12:23:08;20.90;99.90
15178;DHT22;7689;53.612;-2.416;2022-08-19T12:25:35;21.10;99.90
15178;DHT22;7689;53.612;-2.416;2022-08-19T12:28:02;20.90;99.90
15178;DHT22;7689;53.612;-2.416;2022-08-19T12:30:28;20.80;99.90
15178;DHT22;7689;53.612;-2.416;2022-08-19T12:32:54;20.90;99.90
15178;DHT22;7689;53.612;-2.416;2022-08-19T12:35:19;20.90;99.90
15178;DHT22;7689;53.612;-2.416;2022-08-19T12:37:47;20.90;99.90
15178;DHT22;7689;53.612;-2.416;2022-08-19T12:40:14;20.50;99.90
15178;DHT22;7689;53.612;-2.416;2022-08-19T12:42:40;20.10;99.90
15178;DHT22;7689;53.612;-2.416;2022-08-19T12:45:13;20.10;99.90
15178;DHT22;7689;53.612;-2.416;2022-08-19T12:47:39;20.10;99.90
15178;DHT22;7689;53.612;-2.416;2022-08-19T12:50:06;20.00;99.90
15178;DHT22;7689;53.612;-2.416;2022-08-19T12:52:35;19.90;99.90
15178;DHT22;7689;53.612;-2.416;2022-08-19T12:55:04;20.00;99.90
15178;DHT22;7689;53.612;-2.416;2022-08-19T12:57:30;20.00;99.90
15178;DHT22;7689;53.612;-2.416;2022-08-19T13:00:00;20.40;99.90
15178;DHT22;7689;53.612;-2.416;2022-08-19T13:02:26;20.50;99.90
15178;DHT22;7689;53.612;-2.416;2022-08-19T13:04:52;20.30;99.90
15178;DHT22;7689;53.612;-2.416;2022-08-19T13:07:17;20.40;99.90
15178;DHT22;7689;53.612;-2.416;2022-08-19T13:09:43;20.60;99.90
15178;DHT22;7689;53.612;-2.416;2022-08-19T13:12:10;20.90;99.90
15178;DHT22;7689;53.612;-2.416;2022-08-19T13:14:39;21.00;99.90
15178;DHT22;7689;53.612;-2.416;2022-08-19T13:17:06;21.00;99.90
15178;DHT22;7689;53.612;-2.416;2022-08-19T13:19:32;20.90;99.90
15178;DHT22;7689;53.612;-2.416;2022-08-19T13:21:58;20.80;99.90
15178;DHT22;7689;53.612;-2.416;2022-08-19T13:24:24;20.90;99.90
15178;DHT22;7689;53.612;-2.416;2022-08-19T13:26:50;20.80;99.90
15178;DHT22;7689;53.612;-2.416;2022-08-19T13:29:16;20.80;99.90
15178;DHT22;7689;53.612;-2.416;2022-08-19T13:32:00;20.90;99.90
15178;DHT22;7689;53.612;-2.416;2022-08-19T13:34:44;20.80;99.90
15178;DHT22;7689;53.612;-2.416;2022-08-19T13:37:12;20.60;99.90
15178;DHT22;7689;53.612;-2.416;2022-08-19T13:39:38;20.90;99.90
15178;DHT22;7689;53.612;-2.416;2022-08-19T13:42:04;20.80;99.90
15178;DHT22;7689;53.612;-2.416;2022-08-19T13:44:31;21.10;99.90
15178;DHT22;7689;53.612;-2.416;2022-08-19T13:47:01;21.40;99.90
15178;DHT22;7689;53.612;-2.416;2022-08-19T13:49:32;21.50;99.90
15178;DHT22;7689;53.612;-2.416;2022-08-19T13:51:58;21.70;99.90
15178;DHT22;7689;53.612;-2.416;2022-08-19T13:54:24;21.60;99.90
15178;DHT22;7689;53.612;-2.416;2022-08-19T13:56:50;21.60;99.90
15178;DHT22;7689;53.612;-2.416;2022-08-19T13:59:15;21.60;99.90
15178;DHT22;7689;53.612;-2.416;2022-08-19T14:01:42;21.50;99.90
15178;DHT22;7689;53.612;-2.416;2022-08-19T14:04:08;21.50;99.90
15178;DHT22;7689;53.612;-2.416;2022-08-19T14:06:34;21.10;99.90
15178;DHT22;7689;53.612;-2.416;2022-08-19T14:09:00;21.10;99.90
15178;DHT22;7689;53.612;-2.416;2022-08-19T14:11:27;21.20;99.90
15178;DHT22;7689;53.612;-2.416;2022-08-19T14:13:53;21.20;99.90
15178;DHT22;7689;53.612;-2.416;2022-08-19T14:16:19;20.90;99.90
15178;DHT22;7689;53.612;-2.416;2022-08-19T14:18:47;21.10;99.90
15178;DHT22;7689;53.612;-2.416;2022-08-19T14:21:17;21.10;99.90
15178;DHT22;7689;53.612;-2.416;2022-08-19T14:23:45;21.10;99.90
15178;DHT22;7689;53.612;-2.416;2022-08-19T14:26:14;20.90;99.90
15178;DHT22;7689;53.612;-2.416;2022-08-19T14:28:42;20.70;99.90
15178;DHT22;7689;53.612;-2.416;2022-08-19T14:31:09;20.50;99.90
15178;DHT22;7689;53.612;-2.416;2022-08-19T14:33:35;20.50;99.90
15178;DHT22;7689;53.612;-2.416;2022-08-19T14:36:02;20.60;99.90
15178;DHT22;7689;53.612;-2.416;2022-08-19T14:38:28;20.60;99.90
15178;DHT22;7689;53.612;-2.416;2022-08-19T14:41:16;20.40;99.90
15178;DHT22;7689;53.612;-2.416;2022-08-19T14:43:43;20.40;99.90
15178;DHT22;7689;53.612;-2.416;2022-08-19T14:46:13;20.70;99.90
15178;DHT22;7689;53.612;-2.416;2022-08-19T14:48:41;20.80;99.90
15178;DHT22;7689;53.612;-2.416;2022-08-19T14:51:06;20.70;99.90
15178;DHT22;7689;53.612;-2.416;2022-08-19T14:53:32;20.90;99.90
15178;DHT22;7689;53.612;-2.416;2022-08-19T14:55:59;21.10;99.90
15178;DHT22;7689;53.612;-2.416;2022-08-19T14:58:25;21.10;99.90
15178;DHT22;7689;53.612;-2.416;2022-08-19T15:00:51;20.90;99.90
15178;DHT22;7689;53.612;-2.416;2022-08-19T15:03:17;20.70;99.90
15178;DHT22;7689;53.612;-2.416;2022-08-19T15:05:42;20.60;99.90
15178;DHT22;7689;53.612;-2.416;2022-08-19T15:08:08;20.70;99.90
15178;DHT22;7689;53.612;-2.416;2022-08-19T15:10:34;20.70;99.90
15178;DHT22;7689;53.612;-2.416;2022-08-19T15:12:59;20.90;99.90
15178;DHT22;7689;53.612;-2.416;2022-08-19T15:15:25;20.80;99.90
15178;DHT22;7689;53.612;-2.416;2022-08-19T15:17:51;20.60;99.90
15178;DHT22;7689;53.612;-2.416;2022-08-19T15:20:19;20.70;99.90
15178;DHT22;7689;53.612;-2.416;2022-08-19T15:22:45;20.80;99.90
15178;DHT22;7689;53.612;-2.416;2022-08-19T15:25:12;20.50;99.90
15178;DHT22;7689;53.612;-2.416;2022-08-19T15:27:38;20.40;99.90
15178;DHT22;7689;53.612;-2.416;2022-08-19T15:30:06;20.50;99.90
15178;DHT22;7689;53.612;-2.416;2022-08-19T15:32:33;20.80;99.90
15178;DHT22;7689;53.612;-2.416;2022-08-19T15:35:00;21.00;99.90
15178;DHT22;7689;53.612;-2.416;2022-08-19T15:37:27;21.10;99.90
15178;DHT22;7689;53.612;-2.416;2022-08-19T15:39:53;21.10;99.90
15178;DHT22;7689;53.612;-2.416;2022-08-19T15:42:19;21.00;99.90
15178;DHT22;7689;53.612;-2.416;2022-08-19T15:44:46;21.00;99.90
15178;DHT22;7689;53.612;-2.416;2022-08-19T15:47:12;20.70;99.90